createdAt,value
2017-04-24T00:00:27.523Z,974.02
2017-04-24T00:01:29.915Z,974.03
2017-04-24T00:02:32.316Z,974.02
2017-04-24T00:03:34.705Z,974.03
2017-04-24T00:04:37.706Z,974.05
2017-04-24T00:05:40.082Z,974.01
2017-04-24T00:06:42.489Z,973.98
2017-04-24T00:07:45.081Z,973.99
2017-04-24T00:08:47.476Z,974.06
2017-04-24T00:09:50.518Z,974.05
2017-04-24T00:10:52.911Z,974.06
2017-04-24T00:11:55.309Z,974.05
2017-04-24T00:12:57.698Z,974.04
2017-04-24T00:14:00.090Z,974.04
2017-04-24T00:15:03.071Z,974.08
2017-04-24T00:16:05.435Z,974.07
2017-04-24T00:17:07.829Z,974.02
2017-04-24T00:18:10.211Z,974.05
2017-04-24T00:19:12.612Z,974.07
2017-04-24T00:20:15.698Z,974.10
2017-04-24T00:21:18.085Z,974.11
2017-04-24T00:22:20.468Z,974.12
2017-04-24T00:23:22.851Z,974.13
2017-04-24T00:24:25.242Z,974.15
2017-04-24T00:25:28.285Z,974.16
2017-04-24T00:26:30.680Z,974.17
2017-04-24T00:27:33.062Z,974.15
2017-04-24T00:28:35.460Z,974.15
2017-04-24T00:29:37.853Z,974.15
2017-04-24T00:30:40.786Z,974.17
2017-04-24T00:31:43.188Z,974.19
2017-04-24T00:32:45.574Z,974.22
2017-04-24T00:33:47.932Z,974.25
2017-04-24T00:34:50.326Z,974.27
2017-04-24T00:35:53.325Z,974.28
2017-04-24T00:36:55.694Z,974.35
2017-04-24T00:37:58.093Z,974.33
2017-04-24T00:39:00.477Z,974.37
2017-04-24T00:40:02.857Z,974.40
2017-04-24T00:41:05.847Z,974.40
2017-04-24T00:42:08.221Z,974.38
2017-04-24T00:43:10.616Z,974.43
2017-04-24T00:44:13.004Z,974.40
2017-04-24T00:45:15.387Z,974.45
2017-04-24T00:46:18.431Z,974.41
2017-04-24T00:47:20.819Z,974.44
2017-04-24T00:48:23.203Z,974.45
2017-04-24T00:49:25.590Z,974.48
2017-04-24T00:50:27.985Z,974.47
2017-04-24T00:51:30.985Z,974.46
2017-04-24T00:52:33.371Z,974.52
2017-04-24T00:53:35.751Z,974.54
2017-04-24T00:54:38.143Z,974.55
2017-04-24T00:55:40.529Z,974.54
2017-04-24T00:56:43.534Z,974.54
2017-04-24T00:57:45.926Z,974.56
2017-04-24T00:58:48.327Z,974.56
2017-04-24T00:59:50.674Z,974.53
2017-04-24T01:00:53.081Z,974.56
2017-04-24T01:01:56.052Z,974.55
2017-04-24T01:02:58.448Z,974.57
2017-04-24T01:04:00.821Z,974.57
2017-04-24T01:05:03.207Z,974.55
2017-04-24T01:06:05.592Z,974.54
2017-04-24T01:07:08.573Z,974.58
2017-04-24T01:08:10.945Z,974.59
2017-04-24T01:09:13.319Z,974.58
2017-04-24T01:10:15.710Z,974.59
2017-04-24T01:11:18.112Z,974.63
2017-04-24T01:12:21.101Z,974.71
2017-04-24T01:13:23.492Z,974.68
2017-04-24T01:14:25.865Z,974.72
2017-04-24T01:15:28.257Z,974.73
2017-04-24T01:16:30.640Z,974.75
2017-04-24T01:17:33.621Z,974.73
2017-04-24T01:18:36.015Z,974.78
2017-04-24T01:19:38.401Z,974.82
2017-04-24T01:20:40.788Z,974.86
2017-04-24T01:21:43.192Z,974.87
2017-04-24T01:22:46.125Z,974.93
2017-04-24T01:23:48.503Z,974.91
2017-04-24T01:24:50.889Z,974.95
2017-04-24T01:25:53.286Z,974.95
2017-04-24T01:26:55.664Z,974.94
2017-04-24T01:27:58.653Z,974.93
2017-04-24T01:29:01.038Z,974.94
2017-04-24T01:30:03.428Z,974.96
2017-04-24T01:31:05.813Z,974.95
2017-04-24T01:32:08.201Z,974.99
2017-04-24T01:33:11.192Z,974.98
2017-04-24T01:34:13.583Z,975.01
2017-04-24T01:35:15.962Z,975.03
2017-04-24T01:36:18.346Z,975.05
2017-04-24T01:37:20.743Z,975.02
2017-04-24T01:38:23.736Z,975.04
2017-04-24T01:39:26.110Z,975.05
2017-04-24T01:40:28.496Z,975.11
2017-04-24T01:41:30.886Z,975.09
2017-04-24T01:42:33.266Z,975.11
2017-04-24T01:43:36.260Z,975.14
2017-04-24T01:44:38.656Z,975.14
2017-04-24T01:45:41.049Z,975.18
2017-04-24T01:46:43.443Z,975.18
2017-04-24T01:47:45.843Z,975.20
2017-04-24T01:48:48.830Z,975.21
2017-04-24T01:49:51.219Z,975.22
2017-04-24T01:50:53.614Z,975.21
2017-04-24T01:51:56.007Z,975.26
2017-04-24T01:52:58.392Z,975.29
2017-04-24T01:54:01.369Z,975.31
2017-04-24T01:55:03.763Z,975.30
2017-04-24T01:56:06.150Z,975.30
2017-04-24T01:57:08.541Z,975.30
2017-04-24T01:58:10.932Z,975.28
2017-04-24T01:59:13.925Z,975.31
2017-04-24T02:00:16.320Z,975.31
2017-04-24T02:01:18.708Z,975.30
2017-04-24T02:02:21.099Z,975.32
2017-04-24T02:03:23.467Z,975.30
2017-04-24T02:04:26.513Z,975.30
2017-04-24T02:05:28.909Z,975.26
2017-04-24T02:06:31.299Z,975.29
2017-04-24T02:07:33.690Z,975.30
2017-04-24T02:08:36.060Z,975.31
2017-04-24T02:09:39.059Z,975.34
2017-04-24T02:10:41.454Z,975.31
2017-04-24T02:11:43.841Z,975.35
2017-04-24T02:12:46.233Z,975.33
2017-04-24T02:13:48.615Z,975.34
2017-04-24T02:14:51.645Z,975.34
2017-04-24T02:15:54.027Z,975.33
2017-04-24T02:16:56.410Z,975.36
2017-04-24T02:17:58.789Z,975.35
2017-04-24T02:19:01.179Z,975.36
2017-04-24T02:20:04.224Z,975.36
2017-04-24T02:21:06.615Z,975.41
2017-04-24T02:22:09.016Z,975.41
2017-04-24T02:23:11.403Z,975.43
2017-04-24T02:24:13.805Z,975.44
2017-04-24T02:25:16.843Z,975.44
2017-04-24T02:26:19.229Z,975.42
2017-04-24T02:27:21.618Z,975.43
2017-04-24T02:28:24.012Z,975.43
2017-04-24T02:29:26.411Z,975.44
2017-04-24T02:30:29.436Z,975.45
2017-04-24T02:31:31.824Z,975.49
2017-04-24T02:32:34.228Z,975.51
2017-04-24T02:33:36.618Z,975.53
2017-04-24T02:34:39.016Z,975.50
2017-04-24T02:35:42.012Z,975.54
2017-04-24T02:36:44.407Z,975.57
2017-04-24T02:37:46.812Z,975.59
2017-04-24T02:38:49.205Z,975.59
2017-04-24T02:39:51.599Z,975.61
2017-04-24T02:40:54.579Z,975.61
2017-04-24T02:41:56.973Z,975.61
2017-04-24T02:42:59.372Z,975.64
2017-04-24T02:44:01.751Z,975.67
2017-04-24T02:45:04.141Z,975.68
2017-04-24T02:46:07.155Z,975.72
2017-04-24T02:47:09.531Z,975.73
2017-04-24T02:48:11.925Z,975.78
2017-04-24T02:49:14.322Z,975.79
2017-04-24T02:50:16.715Z,975.77
2017-04-24T02:51:19.711Z,975.79
2017-04-24T02:52:22.104Z,975.77
2017-04-24T02:53:24.504Z,975.81
2017-04-24T02:54:26.910Z,975.80
2017-04-24T02:55:29.299Z,975.82
2017-04-24T02:56:32.302Z,975.85
2017-04-24T02:57:34.703Z,975.86
2017-04-24T02:58:37.089Z,975.82
2017-04-24T02:59:39.489Z,975.84
2017-04-24T03:00:41.869Z,975.81
2017-04-24T03:01:44.907Z,975.80
2017-04-24T03:02:47.300Z,975.81
2017-04-24T03:03:49.682Z,975.81
2017-04-24T03:04:52.080Z,975.79
2017-04-24T03:05:54.473Z,975.80
2017-04-24T03:06:57.455Z,975.75
2017-04-24T03:07:59.844Z,975.77
2017-04-24T03:09:02.224Z,975.72
2017-04-24T03:10:04.617Z,975.76
2017-04-24T03:11:07.009Z,975.76
2017-04-24T03:12:10.041Z,975.77
2017-04-24T03:13:12.442Z,975.82
2017-04-24T03:14:14.840Z,975.82
2017-04-24T03:15:17.231Z,975.83
2017-04-24T03:16:19.616Z,975.85
2017-04-24T03:17:22.614Z,975.88
2017-04-24T03:18:25.002Z,975.87
2017-04-24T03:19:27.398Z,975.83
2017-04-24T03:20:29.782Z,975.82
2017-04-24T03:21:32.187Z,975.85
2017-04-24T03:22:35.180Z,975.84
2017-04-24T03:23:37.575Z,975.81
2017-04-24T03:24:39.964Z,975.82
2017-04-24T03:25:42.355Z,975.82
2017-04-24T03:26:44.747Z,975.79
2017-04-24T03:27:47.787Z,975.79
2017-04-24T03:28:50.173Z,975.77
2017-04-24T03:29:52.569Z,975.80
2017-04-24T03:30:54.949Z,975.81
2017-04-24T03:31:57.343Z,975.83
2017-04-24T03:33:00.317Z,975.80
2017-04-24T03:34:02.705Z,975.84
2017-04-24T03:35:05.085Z,975.80
2017-04-24T03:36:07.463Z,975.84
2017-04-24T03:37:09.853Z,975.82
2017-04-24T03:38:12.881Z,975.83
2017-04-24T03:39:15.275Z,975.84
2017-04-24T03:40:17.675Z,975.85
2017-04-24T03:41:20.064Z,975.84
2017-04-24T03:42:22.461Z,975.84
2017-04-24T03:43:25.449Z,975.87
2017-04-24T03:44:27.841Z,975.89
2017-04-24T03:45:30.225Z,975.91
2017-04-24T03:46:32.617Z,975.91
2017-04-24T03:47:34.998Z,975.91
2017-04-24T03:48:37.990Z,975.89
2017-04-24T03:49:40.376Z,975.91
2017-04-24T03:50:42.785Z,975.93
2017-04-24T03:51:45.173Z,975.95
2017-04-24T03:52:47.575Z,975.96
2017-04-24T03:53:50.563Z,975.97
2017-04-24T03:54:52.950Z,975.95
2017-04-24T03:55:55.323Z,975.98
2017-04-24T03:56:57.725Z,975.96
2017-04-24T03:58:00.099Z,975.96
2017-04-24T03:59:03.058Z,975.93
2017-04-24T04:00:05.420Z,975.94
2017-04-24T04:01:07.789Z,975.90
2017-04-24T04:02:10.152Z,975.92
2017-04-24T04:03:12.535Z,975.91
2017-04-24T04:04:15.523Z,975.90
2017-04-24T04:05:17.897Z,975.91
2017-04-24T04:06:20.485Z,975.92
2017-04-24T04:07:22.856Z,975.90
2017-04-24T04:08:25.259Z,975.88
2017-04-24T04:09:28.253Z,975.87
2017-04-24T04:10:30.614Z,975.88
2017-04-24T04:11:33.000Z,975.84
2017-04-24T04:12:35.379Z,975.88
2017-04-24T04:13:37.774Z,975.88
2017-04-24T04:14:40.766Z,975.91
2017-04-24T04:15:43.148Z,975.94
2017-04-24T04:16:45.536Z,975.93
2017-04-24T04:17:47.892Z,975.91
2017-04-24T04:18:50.277Z,975.86
2017-04-24T04:19:53.257Z,975.88
2017-04-24T04:20:55.635Z,975.85
2017-04-24T04:21:58.004Z,975.88
2017-04-24T04:23:00.375Z,975.90
2017-04-24T04:24:02.766Z,975.89
2017-04-24T04:25:05.728Z,975.92
2017-04-24T04:26:08.103Z,975.91
2017-04-24T04:27:10.487Z,975.89
2017-04-24T04:28:12.889Z,975.85
2017-04-24T04:29:15.251Z,975.81
2017-04-24T04:30:18.194Z,975.83
2017-04-24T04:31:20.553Z,975.82
2017-04-24T04:32:22.916Z,975.84
2017-04-24T04:33:25.293Z,975.87
2017-04-24T04:34:27.693Z,975.87
2017-04-24T04:35:30.653Z,975.85
2017-04-24T04:36:33.041Z,975.85
2017-04-24T04:37:35.428Z,975.85
2017-04-24T04:38:37.793Z,975.87
2017-04-24T04:39:40.162Z,975.87
2017-04-24T04:40:43.132Z,975.87
2017-04-24T04:41:45.497Z,975.85
2017-04-24T04:42:48.064Z,975.85
2017-04-24T04:43:50.425Z,975.88
2017-04-24T04:44:52.791Z,975.88
2017-04-24T04:45:55.713Z,975.87
2017-04-24T04:46:58.091Z,975.82
2017-04-24T04:48:00.481Z,975.86
2017-04-24T04:49:02.878Z,975.83
2017-04-24T04:50:05.262Z,975.83
2017-04-24T04:51:08.199Z,975.81
2017-04-24T04:52:10.552Z,975.86
2017-04-24T04:53:12.922Z,975.85
2017-04-24T04:54:15.286Z,975.86
2017-04-24T04:55:17.638Z,975.82
2017-04-24T04:56:20.600Z,975.81
2017-04-24T04:57:22.959Z,975.84
2017-04-24T04:58:25.326Z,975.81
2017-04-24T04:59:27.691Z,975.80
2017-04-24T05:00:30.051Z,975.79
2017-04-24T05:01:33.006Z,975.76
2017-04-24T05:02:35.370Z,975.77
2017-04-24T05:03:37.728Z,975.78
2017-04-24T05:04:40.088Z,975.81
2017-04-24T05:05:42.458Z,975.77
2017-04-24T05:06:45.376Z,975.78
2017-04-24T05:07:47.731Z,975.78
2017-04-24T05:08:50.096Z,975.81
2017-04-24T05:09:52.452Z,975.80
2017-04-24T05:10:54.811Z,975.77
2017-04-24T05:11:57.721Z,975.78
2017-04-24T05:13:00.096Z,975.79
2017-04-24T05:14:02.452Z,975.82
2017-04-24T05:15:04.819Z,975.78
2017-04-24T05:16:07.175Z,975.82
2017-04-24T05:17:10.138Z,975.79
2017-04-24T05:18:12.505Z,975.79
2017-04-24T05:19:14.886Z,975.83
2017-04-24T05:20:17.253Z,975.79
2017-04-24T05:21:19.615Z,975.79
2017-04-24T05:22:22.533Z,975.78
2017-04-24T05:23:24.885Z,975.81
2017-04-24T05:24:27.269Z,975.81
2017-04-24T05:25:29.626Z,975.80
2017-04-24T05:26:31.993Z,975.84
2017-04-24T05:27:34.904Z,975.82
2017-04-24T05:28:37.277Z,975.80
2017-04-24T05:29:39.654Z,975.79
2017-04-24T05:30:42.004Z,975.77
2017-04-24T05:31:44.374Z,975.74
2017-04-24T05:32:47.379Z,975.74
2017-04-24T05:33:49.720Z,975.74
2017-04-24T05:34:52.084Z,975.74
2017-04-24T05:35:54.465Z,975.72
2017-04-24T05:36:56.823Z,975.73
2017-04-24T05:37:59.783Z,975.69
2017-04-24T05:39:02.153Z,975.73
2017-04-24T05:40:04.546Z,975.72
2017-04-24T05:41:06.905Z,975.69
2017-04-24T05:42:09.277Z,975.69
2017-04-24T05:43:12.180Z,975.66
2017-04-24T05:44:14.541Z,975.64
2017-04-24T05:45:16.911Z,975.66
2017-04-24T05:46:19.268Z,975.69
2017-04-24T05:47:21.635Z,975.66
2017-04-24T05:48:24.602Z,975.68
2017-04-24T05:49:26.950Z,975.68
2017-04-24T05:50:29.325Z,975.66
2017-04-24T05:51:31.681Z,975.67
2017-04-24T05:52:34.039Z,975.67
2017-04-24T05:53:37.109Z,975.66
2017-04-24T05:54:39.460Z,975.64
2017-04-24T05:55:41.831Z,975.65
2017-04-24T05:56:44.197Z,975.63
2017-04-24T05:57:46.566Z,975.62
2017-04-24T05:58:49.521Z,975.66
2017-04-24T05:59:51.882Z,975.62
2017-04-24T06:00:54.441Z,975.64
2017-04-24T06:01:56.801Z,975.63
2017-04-24T06:02:59.159Z,975.58
2017-04-24T06:04:02.121Z,975.60
2017-04-24T06:05:04.480Z,975.55
2017-04-24T06:06:06.840Z,975.53
2017-04-24T06:07:09.198Z,975.52
2017-04-24T06:08:11.560Z,975.53
2017-04-24T06:09:14.527Z,975.51
2017-04-24T06:10:16.896Z,975.49
2017-04-24T06:11:19.239Z,975.55
2017-04-24T06:12:21.602Z,975.50
2017-04-24T06:13:23.956Z,975.51
2017-04-24T06:14:26.920Z,975.50
2017-04-24T06:15:29.276Z,975.46
2017-04-24T06:16:31.634Z,975.47
2017-04-24T06:17:33.994Z,975.43
2017-04-24T06:18:36.354Z,975.45
2017-04-24T06:19:39.314Z,975.49
2017-04-24T06:20:41.675Z,975.50
2017-04-24T06:21:44.035Z,975.50
2017-04-24T06:22:46.392Z,975.50
2017-04-24T06:23:48.753Z,975.52
2017-04-24T06:24:51.717Z,975.54
2017-04-24T06:25:54.071Z,975.57
2017-04-24T06:26:56.440Z,975.54
2017-04-24T06:27:58.793Z,975.56
2017-04-24T06:29:01.154Z,975.56
2017-04-24T06:30:04.110Z,975.55
2017-04-24T06:31:06.476Z,975.49
2017-04-24T06:32:08.826Z,975.51
2017-04-24T06:33:11.189Z,975.51
2017-04-24T06:34:13.545Z,975.50
2017-04-24T06:35:16.453Z,975.47
2017-04-24T06:36:18.811Z,975.45
2017-04-24T06:37:21.170Z,975.45
2017-04-24T06:38:23.531Z,975.45
2017-04-24T06:39:25.896Z,975.47
2017-04-24T06:40:28.800Z,975.44
2017-04-24T06:41:31.157Z,975.48
2017-04-24T06:42:33.516Z,975.46
2017-04-24T06:43:35.868Z,975.45
2017-04-24T06:44:38.227Z,975.45
2017-04-24T06:45:41.187Z,975.47
2017-04-24T06:46:43.550Z,975.43
2017-04-24T06:47:45.911Z,975.41
2017-04-24T06:48:48.271Z,975.44
2017-04-24T06:49:50.635Z,975.41
2017-04-24T06:50:53.594Z,975.40
2017-04-24T06:51:55.954Z,975.37
2017-04-24T06:52:58.315Z,975.37
2017-04-24T06:54:00.668Z,975.37
2017-04-24T06:55:03.029Z,975.34
2017-04-24T06:56:05.990Z,975.35
2017-04-24T06:57:08.349Z,975.34
2017-04-24T06:58:10.712Z,975.36
2017-04-24T06:59:13.068Z,975.29
2017-04-24T07:00:15.427Z,975.31
2017-04-24T07:01:18.388Z,975.30
2017-04-24T07:02:20.746Z,975.29
2017-04-24T07:03:23.109Z,975.27
2017-04-24T07:04:25.462Z,975.26
2017-04-24T07:05:27.834Z,975.25
2017-04-24T07:06:30.798Z,975.26
2017-04-24T07:07:33.144Z,975.22
2017-04-24T07:08:35.510Z,975.23
2017-04-24T07:09:37.870Z,975.21
2017-04-24T07:10:40.222Z,975.22
2017-04-24T07:11:43.188Z,975.18
2017-04-24T07:12:45.541Z,975.14
2017-04-24T07:13:47.907Z,975.14
2017-04-24T07:14:50.285Z,975.11
2017-04-24T07:15:52.630Z,975.12
2017-04-24T07:16:55.589Z,975.12
2017-04-24T07:17:57.950Z,975.11
2017-04-24T07:19:00.312Z,975.08
2017-04-24T07:20:02.666Z,975.09
2017-04-24T07:21:05.037Z,975.11
2017-04-24T07:22:07.988Z,975.08
2017-04-24T07:23:10.348Z,975.06
2017-04-24T07:24:12.706Z,975.08
2017-04-24T07:25:15.063Z,975.05
2017-04-24T07:26:17.417Z,975.03
2017-04-24T07:27:20.375Z,975.02
2017-04-24T07:28:22.732Z,975.01
2017-04-24T07:29:25.100Z,975.02
2017-04-24T07:30:27.461Z,974.99
2017-04-24T07:31:29.816Z,975.00
2017-04-24T07:32:32.773Z,975.01
2017-04-24T07:33:35.143Z,975.00
2017-04-24T07:34:37.504Z,974.99
2017-04-24T07:36:23.064Z,974.97
2017-04-24T07:37:25.424Z,974.93
2017-04-24T07:38:28.384Z,974.93
2017-04-24T07:39:30.740Z,974.91
2017-04-24T07:40:33.102Z,974.95
2017-04-24T07:41:35.467Z,974.94
2017-04-24T07:42:37.825Z,974.89
2017-04-24T07:43:40.786Z,974.86
2017-04-24T07:44:43.140Z,974.87
2017-04-24T07:45:45.503Z,974.81
2017-04-24T07:46:47.863Z,974.75
2017-04-24T07:47:50.223Z,974.73
2017-04-24T07:48:53.188Z,974.76
2017-04-24T07:49:55.546Z,974.74
2017-04-24T07:50:57.915Z,974.73
2017-04-24T07:52:00.268Z,974.74
2017-04-24T07:53:02.638Z,974.74
2017-04-24T07:54:05.607Z,974.73
2017-04-24T07:55:07.963Z,974.77
2017-04-24T07:56:10.322Z,974.71
2017-04-24T07:57:12.682Z,974.70
2017-04-24T07:58:15.043Z,974.68
2017-04-24T07:59:18.013Z,974.67
2017-04-24T08:00:20.360Z,974.66
2017-04-24T08:01:22.728Z,974.66
2017-04-24T08:02:25.081Z,974.67
2017-04-24T08:03:27.438Z,974.64
2017-04-24T08:04:30.398Z,974.63
2017-04-24T08:05:32.775Z,974.62
2017-04-24T08:06:35.119Z,974.62
2017-04-24T08:07:37.482Z,974.58
2017-04-24T08:08:40.037Z,974.57
2017-04-24T08:09:43.001Z,974.60
2017-04-24T08:10:45.358Z,974.56
2017-04-24T08:11:47.721Z,974.59
2017-04-24T08:12:50.078Z,974.58
2017-04-24T08:13:52.436Z,974.58
2017-04-24T08:14:55.391Z,974.59
2017-04-24T08:15:57.749Z,974.57
2017-04-24T08:17:00.113Z,974.54
2017-04-24T08:18:02.479Z,974.55
2017-04-24T08:19:05.032Z,974.58
2017-04-24T08:20:08.200Z,974.55
2017-04-24T08:21:10.558Z,974.57
2017-04-24T08:22:12.923Z,974.56
2017-04-24T08:23:15.279Z,974.54
2017-04-24T08:24:17.639Z,974.52
2017-04-24T08:25:20.606Z,974.50
2017-04-24T08:26:22.967Z,974.50
2017-04-24T08:27:25.536Z,974.46
2017-04-24T08:28:27.889Z,974.53
2017-04-24T08:29:30.246Z,974.49
2017-04-24T08:30:33.200Z,974.48
2017-04-24T08:31:35.562Z,974.48
2017-04-24T08:32:37.926Z,974.46
2017-04-24T08:33:40.286Z,974.47
2017-04-24T08:34:42.638Z,974.49
2017-04-24T08:35:45.596Z,974.47
2017-04-24T08:36:47.951Z,974.47
2017-04-24T08:37:50.311Z,974.46
2017-04-24T08:38:52.668Z,974.47
2017-04-24T08:39:55.022Z,974.44
2017-04-24T08:40:57.984Z,974.47
2017-04-24T08:42:00.343Z,974.50
2017-04-24T08:43:02.714Z,974.51
2017-04-24T08:44:05.082Z,974.47
2017-04-24T08:45:07.445Z,974.47
2017-04-24T08:46:10.403Z,974.46
2017-04-24T08:47:12.762Z,974.45
2017-04-24T08:48:15.120Z,974.49
2017-04-24T08:49:17.476Z,974.50
2017-04-24T08:50:19.846Z,974.50
2017-04-24T08:51:22.799Z,974.46
2017-04-24T08:52:25.156Z,974.42
2017-04-24T08:53:27.516Z,974.38
2017-04-24T08:54:29.872Z,974.36
2017-04-24T08:55:44.970Z,974.36
2017-04-24T08:56:47.935Z,974.37
2017-04-24T08:57:50.305Z,974.37
2017-04-24T08:58:52.661Z,974.37
2017-04-24T08:59:55.009Z,974.38
2017-04-24T09:00:57.366Z,974.41
2017-04-24T09:02:00.323Z,974.41
2017-04-24T09:03:02.680Z,974.40
2017-04-24T09:04:05.039Z,974.44
2017-04-24T09:05:07.397Z,974.43
2017-04-24T09:06:09.759Z,974.41
2017-04-24T09:07:12.711Z,974.39
2017-04-24T09:08:15.071Z,974.43
2017-04-24T09:09:17.444Z,974.38
2017-04-24T09:10:19.807Z,974.36
2017-04-24T09:11:22.178Z,974.42
2017-04-24T09:12:25.136Z,974.35
2017-04-24T09:13:27.502Z,974.36
2017-04-24T09:14:29.857Z,974.35
2017-04-24T09:15:32.214Z,974.36
2017-04-24T09:16:34.574Z,974.31
2017-04-24T09:17:37.549Z,974.32
2017-04-24T09:18:39.905Z,974.35
2017-04-24T09:19:42.271Z,974.31
2017-04-24T09:20:44.626Z,974.30
2017-04-24T09:21:46.992Z,974.29
2017-04-24T09:22:49.952Z,974.23
2017-04-24T09:23:52.305Z,974.25
2017-04-24T09:24:54.665Z,974.25
2017-04-24T09:25:57.022Z,974.23
2017-04-24T09:26:59.381Z,974.23
2017-04-24T09:28:02.342Z,974.24
2017-04-24T09:29:04.711Z,974.25
2017-04-24T09:30:07.067Z,974.21
2017-04-24T09:31:09.422Z,974.20
2017-04-24T09:32:11.785Z,974.17
2017-04-24T09:33:14.740Z,974.09
2017-04-24T09:34:17.107Z,974.17
2017-04-24T09:35:19.461Z,974.13
2017-04-24T09:36:21.814Z,974.14
2017-04-24T09:37:24.173Z,974.14
2017-04-24T09:38:27.134Z,974.14
2017-04-24T09:39:29.491Z,974.14
2017-04-24T09:40:31.860Z,974.15
2017-04-24T09:41:34.214Z,974.15
2017-04-24T09:42:36.570Z,974.13
2017-04-24T09:43:39.536Z,974.14
2017-04-24T09:44:41.902Z,974.11
2017-04-24T09:45:44.255Z,974.12
2017-04-24T09:46:46.621Z,974.11
2017-04-24T09:47:48.976Z,974.15
2017-04-24T09:48:51.934Z,974.11
2017-04-24T09:49:54.293Z,974.13
2017-04-24T09:50:56.650Z,974.13
2017-04-24T09:51:59.007Z,974.14
2017-04-24T09:53:01.368Z,974.12
2017-04-24T09:54:04.333Z,974.11
2017-04-24T09:55:06.691Z,974.11
2017-04-24T09:56:09.056Z,974.13
2017-04-24T09:57:11.422Z,974.10
2017-04-24T09:58:13.785Z,974.12
2017-04-24T09:59:16.754Z,974.09
2017-04-24T10:00:19.102Z,974.13
2017-04-24T10:01:21.475Z,974.15
2017-04-24T10:02:23.830Z,974.11
2017-04-24T10:03:26.191Z,974.12
2017-04-24T10:04:29.153Z,974.14
2017-04-24T10:05:31.512Z,974.13
2017-04-24T10:06:33.874Z,974.11
2017-04-24T10:07:36.232Z,974.10
2017-04-24T10:08:38.591Z,974.06
2017-04-24T10:09:41.558Z,974.06
2017-04-24T10:10:43.916Z,974.11
2017-04-24T10:11:46.274Z,974.05
2017-04-24T10:12:48.629Z,974.07
2017-04-24T10:13:51.005Z,974.10
2017-04-24T10:14:53.958Z,974.11
2017-04-24T10:15:56.317Z,974.12
2017-04-24T10:16:58.689Z,974.11
2017-04-24T10:18:01.049Z,974.14
2017-04-24T10:19:03.407Z,974.12
2017-04-24T10:20:06.325Z,974.15
2017-04-24T10:21:08.673Z,974.17
2017-04-24T10:22:11.043Z,974.15
2017-04-24T10:23:13.404Z,974.16
2017-04-24T10:24:15.761Z,974.17
2017-04-24T10:25:18.670Z,974.17
2017-04-24T10:26:21.041Z,974.19
2017-04-24T10:27:23.397Z,974.18
2017-04-24T10:28:25.759Z,974.16
2017-04-24T10:29:28.123Z,974.16
2017-04-24T10:30:31.032Z,974.16
2017-04-24T10:31:33.392Z,974.17
2017-04-24T10:32:35.754Z,974.20
2017-04-24T10:33:38.111Z,974.18
2017-04-24T10:34:40.474Z,974.19
2017-04-24T10:35:43.435Z,974.16
2017-04-24T10:36:45.796Z,974.21
2017-04-24T10:37:48.158Z,974.18
2017-04-24T10:38:50.513Z,974.20
2017-04-24T10:39:52.871Z,974.22
2017-04-24T10:40:55.836Z,974.27
2017-04-24T10:41:58.188Z,974.27
2017-04-24T10:43:00.552Z,974.33
2017-04-24T10:44:02.904Z,974.32
2017-04-24T10:45:05.265Z,974.35
2017-04-24T10:46:08.221Z,974.36
2017-04-24T10:47:10.598Z,974.38
2017-04-24T10:48:12.954Z,974.33
2017-04-24T10:49:15.313Z,974.35
2017-04-24T10:50:17.684Z,974.38
2017-04-24T10:51:20.642Z,974.36
2017-04-24T10:52:23.014Z,974.42
2017-04-24T10:53:25.363Z,974.40
2017-04-24T10:54:27.728Z,974.42
2017-04-24T10:55:30.080Z,974.43
2017-04-24T10:56:33.039Z,974.45
2017-04-24T10:57:35.406Z,974.42
2017-04-24T10:58:37.764Z,974.47
2017-04-24T10:59:40.119Z,974.46
2017-04-24T11:00:42.477Z,974.48
2017-04-24T11:01:45.440Z,974.47
2017-04-24T11:02:47.802Z,974.49
2017-04-24T11:03:50.170Z,974.52
2017-04-24T11:04:52.523Z,974.57
2017-04-24T11:05:54.876Z,974.56
2017-04-24T11:06:57.839Z,974.54
2017-04-24T11:08:00.203Z,974.56
2017-04-24T11:09:02.558Z,974.59
2017-04-24T11:10:04.927Z,974.59
2017-04-24T11:11:07.288Z,974.60
2017-04-24T11:12:10.201Z,974.61
2017-04-24T11:13:12.556Z,974.61
2017-04-24T11:14:14.919Z,974.60
2017-04-24T11:15:17.283Z,974.61
2017-04-24T11:16:19.648Z,974.60
2017-04-24T11:17:22.617Z,974.60
2017-04-24T11:18:24.972Z,974.63
2017-04-24T11:19:27.328Z,974.63
2017-04-24T11:20:29.695Z,974.64
2017-04-24T11:21:32.048Z,974.64
2017-04-24T11:22:35.004Z,974.62
2017-04-24T11:23:37.365Z,974.63
2017-04-24T11:24:39.725Z,974.64
2017-04-24T11:25:42.093Z,974.66
2017-04-24T11:26:44.446Z,974.61
2017-04-24T11:27:49.456Z,974.61
2017-04-24T11:28:51.816Z,974.59
2017-04-24T11:29:54.173Z,974.59
2017-04-24T11:30:56.536Z,974.61
2017-04-24T11:31:58.896Z,974.61
2017-04-24T11:33:01.961Z,974.58
2017-04-24T11:34:04.320Z,974.60
2017-04-24T11:35:06.673Z,974.57
2017-04-24T11:36:09.031Z,974.60
2017-04-24T11:37:11.383Z,974.59
2017-04-24T11:38:14.299Z,974.60
2017-04-24T11:39:16.667Z,974.62
2017-04-24T11:40:19.019Z,974.61
2017-04-24T11:41:21.395Z,974.61
2017-04-24T11:42:23.744Z,974.63
2017-04-24T11:43:26.965Z,974.64
2017-04-24T11:44:29.326Z,974.64
2017-04-24T11:45:31.686Z,974.65
2017-04-24T11:46:34.057Z,974.65
2017-04-24T11:47:36.416Z,974.72
2017-04-24T11:48:39.376Z,974.70
2017-04-24T11:49:41.741Z,974.68
2017-04-24T11:50:44.113Z,974.69
2017-04-24T11:51:46.474Z,974.73
2017-04-24T11:52:48.841Z,974.69
2017-04-24T11:53:51.751Z,974.68
2017-04-24T11:54:54.111Z,974.70
2017-04-24T11:55:56.484Z,974.71
2017-04-24T11:56:58.844Z,974.68
2017-04-24T11:58:01.200Z,974.71
2017-04-24T11:59:04.114Z,974.76
2017-04-24T12:00:06.479Z,974.77
2017-04-24T12:01:08.847Z,974.77
2017-04-24T12:02:11.213Z,974.79
2017-04-24T12:03:13.587Z,974.81
2017-04-24T12:04:18.555Z,974.82
2017-04-24T12:05:20.913Z,974.86
2017-04-24T12:06:23.275Z,974.84
2017-04-24T12:07:25.640Z,974.88
2017-04-24T12:08:28.001Z,974.87
2017-04-24T12:09:30.968Z,974.94
2017-04-24T12:10:33.343Z,974.91
2017-04-24T12:11:35.690Z,974.94
2017-04-24T12:12:38.062Z,974.95
2017-04-24T12:13:40.419Z,974.97
2017-04-24T12:14:43.384Z,974.97
2017-04-24T12:15:45.757Z,974.98
2017-04-24T12:16:48.119Z,974.97
2017-04-24T12:17:50.477Z,974.99
2017-04-24T12:18:52.846Z,974.96
2017-04-24T12:19:55.809Z,974.99
2017-04-24T12:20:58.172Z,975.02
2017-04-24T12:22:00.536Z,974.97
2017-04-24T12:23:02.899Z,975.03
2017-04-24T12:24:05.273Z,975.00
2017-04-24T12:25:08.236Z,975.05
2017-04-24T12:26:10.597Z,975.07
2017-04-24T12:27:12.960Z,975.06
2017-04-24T12:28:15.330Z,975.04
2017-04-24T12:29:17.693Z,975.06
2017-04-24T12:30:20.662Z,975.07
2017-04-24T12:31:23.023Z,975.09
2017-04-24T12:32:25.384Z,975.07
2017-04-24T12:33:27.759Z,975.09
2017-04-24T12:34:30.121Z,975.08
2017-04-24T12:35:33.082Z,975.08
2017-04-24T12:36:35.444Z,975.10
2017-04-24T12:37:37.817Z,975.12
2017-04-24T12:38:40.178Z,975.10
2017-04-24T12:39:42.545Z,975.10
2017-04-24T12:40:45.517Z,975.14
2017-04-24T12:41:47.876Z,975.17
2017-04-24T12:42:50.250Z,975.23
2017-04-24T12:43:52.615Z,975.25
2017-04-24T12:44:54.983Z,975.24
2017-04-24T12:45:57.943Z,975.28
2017-04-24T12:47:00.307Z,975.32
2017-04-24T12:48:02.674Z,975.32
2017-04-24T12:49:05.036Z,975.34
2017-04-24T12:50:07.402Z,975.37
2017-04-24T12:51:10.367Z,975.32
2017-04-24T12:52:12.730Z,975.39
2017-04-24T12:53:15.089Z,975.39
2017-04-24T12:54:17.454Z,975.40
2017-04-24T12:55:19.821Z,975.41
2017-04-24T12:56:22.782Z,975.44
2017-04-24T12:57:25.151Z,975.46
2017-04-24T12:58:27.515Z,975.47
2017-04-24T12:59:29.882Z,975.48
2017-04-24T13:00:32.242Z,975.50